Time;durP1;ratioP1;P1;durP2;ratioP2;P2;SDS_P1;SDS_P2;PMS_P1;PMS_P2;Temp;Humidity;BMP_temperature;BMP_pressure;BME280_temperature;BME280_humidity;BME280_pressure;Samples;Min_cycle;Max_cycle;Signal;HPM_P1;HPM_P2
2021/09/21 00:01:41;;;;;;;;;;;;;;;;;;5107871;28;20028;-63
2021/09/21 00:04:08;;;;;;;;;;;;;;;;;;5112510;28;20025;-62
2021/09/21 00:06:35;;;;;;;;;;;;;;;;;;5072977;28;20464;-62
2021/09/21 00:09:02;;;;;;;;;;;;;;;;;;5072993;28;20016;-62
2021/09/21 00:11:29;;;;;;;;;;;;;;;;;;5090904;28;20013;-62
2021/09/21 00:13:57;;;;;;;;;;;;;;;;;;5093345;28;20055;-63
2021/09/21 00:16:24;;;;;;;;;;;;;;;;;;5104466;28;20085;-62
2021/09/21 00:18:51;;;;;;;;;;;;;;;;;;5113699;28;20008;-63
2021/09/21 00:21:18;;;;;;;;;;;;;;;;;;5080468;28;20009;-63
2021/09/21 00:23:45;;;;;;;;;;;;;;;;;;5072748;28;20508;-62
2021/09/21 00:26:12;;;;;;;;;;;;;;;;;;5072540;28;20009;-62
2021/09/21 00:28:38;;;;;;;;;;;;;;;;;;5072644;28;20020;-62
2021/09/21 00:31:08;;;;;;;;;;;;;;;;;;5075206;28;20452;-62
2021/09/21 00:33:46;;;;;;;;;;;;;;;;;;5076947;28;20009;-63
2021/09/21 00:36:13;;;;;;;;;;;;;;;;;;5082915;28;20100;-62
2021/09/21 00:38:40;;;;;;;;;;;;;;;;;;5072812;28;20013;-63
2021/09/21 00:41:07;;;;;;;;;;;;;;;;;;5080826;28;20004;-62
2021/09/21 00:43:34;;;;;;;;;;;;;;;;;;5092748;28;20021;-63
2021/09/21 00:46:01;;;;;;;;;;;;;;;;;;5092776;28;20032;-63
2021/09/21 00:48:28;;;;;;;;;;;;;;;;;;5091755;28;20005;-63
2021/09/21 00:50:55;;;;;;;;;;;;;;;;;;5107645;28;20027;-63
2021/09/21 00:53:23;;;;;;;;;;;;;;;;;;5102474;28;20008;-63
2021/09/21 00:55:51;;;;;;;;;;;;;;;;;;5092006;28;20020;-63
2021/09/21 00:58:18;;;;;;;;;;;;;;;;;;5089611;28;20050;-63
2021/09/21 01:00:45;;;;;;;;;;;;;;;;;;5092661;28;20468;-62
2021/09/21 01:03:12;;;;;;;;;;;;;;;;;;5086229;28;20017;-63
2021/09/21 01:05:39;;;;;;;;;;;;;;;;;;5102597;28;20024;-62
2021/09/21 01:08:06;;;;;;;;;;;;;;;;;;5106384;28;20372;-62
2021/09/21 01:10:33;;;;;;;;;;;;;;;;;;5092632;28;20005;-62
2021/09/21 01:13:00;;;;;;;;;;;;;;;;;;5091727;28;20472;-62
2021/09/21 01:15:26;;;;;;;;;;;;;;;;;;5092218;28;20025;-63
2021/09/21 01:17:56;;;;;;;;;;;;;;;;;;5090129;28;20015;-62
2021/09/21 01:20:23;;;;;;;;;;;;;;;;;;5085626;28;20379;-62
2021/09/21 01:22:50;;;;;;;;;;;;;;;;;;5091124;28;20021;-62
2021/09/21 01:25:17;;;;;;;;;;;;;;;;;;5071739;28;20031;-62
2021/09/21 01:27:44;;;;;;;;;;;;;;;;;;5071456;28;20382;-63
2021/09/21 01:30:11;;;;;;;;;;;;;;;;;;5076889;28;20001;-63
2021/09/21 01:32:38;;;;;;;;;;;;;;;;;;5092288;28;20009;-62
2021/09/21 01:35:05;;;;;;;;;;;;;;;;;;5086555;28;20021;-63
2021/09/21 01:37:32;;;;;;;;;;;;;;;;;;5092452;28;20016;-62
2021/09/21 01:39:59;;;;;;;;;;;;;;;;;;5078773;28;20009;-62
2021/09/21 01:42:25;;;;;;;;;;;;;;;;;;5076642;28;20029;-63
2021/09/21 01:44:52;;;;;;;;;;;;;;;;;;5075188;28;20503;-62
2021/09/21 01:47:20;;;;;;;;;;;;;;;;;;5075569;28;20020;-62
2021/09/21 01:50:00;;;;;;;;;;;;;;;;;;5096263;28;20011;-61
2021/09/21 01:52:32;;;;;;;;;;;;;;;;;;5095057;28;20050;-62
2021/09/21 01:55:12;;;;;;;;;;;;;;;;;;5096786;28;20024;-62
2021/09/21 02:00:24;;;;;;;;;;;;;;;;;;5075649;28;20084;-62
2021/09/21 02:02:51;;;;;;;;;;;;;;;;;;5090055;28;20021;-62
2021/09/21 02:05:18;;;;;;;;;;;;;;;;;;5095508;28;20021;-62
2021/09/21 02:07:45;;;;;;;;;;;;;;;;;;5095571;28;20099;-62
2021/09/21 02:10:12;;;;;;;;;;;;;;;;;;5095169;28;20005;-63
2021/09/21 02:12:39;;;;;;;;;;;;;;;;;;5094599;28;20472;-62
2021/09/21 02:15:05;;;;;;;;;;;;;;;;;;5094860;28;20023;-63
2021/09/21 02:17:32;;;;;;;;;;;;;;;;;;5095431;28;20008;-62
2021/09/21 02:19:59;;;;;;;;;;;;;;;;;;5094736;28;20017;-61
2021/09/21 02:22:26;;;;;;;;;;;;;;;;;;5095468;28;20495;-62
2021/09/21 02:24:55;;;;;;;;;;;;;;;;;;5094606;28;20021;-62
2021/09/21 02:27:22;;;;;;;;;;;;;;;;;;5094937;28;20012;-63
2021/09/21 02:29:49;;;;;;;;;;;;;;;;;;5094636;28;20009;-62
2021/09/21 02:32:16;;;;;;;;;;;;;;;;;;5095623;28;20005;-62
2021/09/21 02:34:45;;;;;;;;;;;;;;;;;;5084132;28;20035;-61
2021/09/21 02:37:12;;;;;;;;;;;;;;;;;;5095281;28;20090;-62
2021/09/21 02:39:38;;;;;;;;;;;;;;;;;;5081194;28;20489;-62
2021/09/21 02:42:05;;;;;;;;;;;;;;;;;;5079023;28;20001;-62
2021/09/21 02:44:33;;;;;;;;;;;;;;;;;;5084695;28;20021;-63
2021/09/21 02:47:00;;;;;;;;;;;;;;;;;;5095541;28;20043;-62
2021/09/21 02:49:27;;;;;;;;;;;;;;;;;;5083209;28;20005;-62
2021/09/21 02:51:54;;;;;;;;;;;;;;;;;;5100370;28;20005;-62
2021/09/21 02:54:21;;;;;;;;;;;;;;;;;;5081970;28;20365;-61
2021/09/21 02:56:48;;;;;;;;;;;;;;;;;;5092876;28;20005;-61
2021/09/21 02:59:15;;;;;;;;;;;;;;;;;;5084863;28;20002;-63
2021/09/21 03:01:41;;;;;;;;;;;;;;;;;;5100703;28;20004;-62
2021/09/21 03:04:14;;;;;;;;;;;;;;;;;;5088211;28;20025;-62
2021/09/21 03:06:45;;;;;;;;;;;;;;;;;;5093140;28;20075;-62
2021/09/21 03:09:15;;;;;;;;;;;;;;;;;;5094157;28;20052;-63
2021/09/21 03:11:44;;;;;;;;;;;;;;;;;;5094591;28;20048;-63
2021/09/21 03:17:15;;;;;;;;;;;;;;;;;;5095808;28;20004;-63
2021/09/21 03:19:42;;;;;;;;;;;;;;;;;;5085669;27;20406;-63
2021/09/21 03:22:09;;;;;;;;;;;;;;;;;;5094173;28;20015;-63
2021/09/21 03:24:36;;;;;;;;;;;;;;;;;;5080790;28;20021;-63
2021/09/21 03:27:03;;;;;;;;;;;;;;;;;;5094249;28;20001;-62
2021/09/21 03:29:30;;;;;;;;;;;;;;;;;;5082176;28;20391;-63
2021/09/21 03:31:57;;;;;;;;;;;;;;;;;;5079996;28;20008;-63
2021/09/21 03:34:24;;;;;;;;;;;;;;;;;;5092455;28;20017;-63
2021/09/21 03:36:51;;;;;;;;;;;;;;;;;;5093550;28;20490;-63
2021/09/21 03:39:18;;;;;;;;;;;;;;;;;;5084715;28;20088;-62
2021/09/21 03:41:45;;;;;;;;;;;;;;;;;;5075514;28;20009;-62
2021/09/21 03:44:12;;;;;;;;;;;;;;;;;;5092712;28;20025;-62
2021/09/21 03:46:39;;;;;;;;;;;;;;;;;;5094780;22;20029;-66
2021/09/21 03:49:05;;;;;;;;;;;;;;;;;;5059005;28;20009;-67
2021/09/21 03:51:32;;;;;;;;;;;;;;;;;;5054263;28;20492;-67
2021/09/21 03:53:59;;;;;;;;;;;;;;;;;;5069900;28;20001;-66
2021/09/21 03:56:26;;;;;;;;;;;;;;;;;;5058325;28;20022;-66
2021/09/21 03:58:53;;;;;;;;;;;;;;;;;;5066580;28;20005;-67
2021/09/21 04:01:20;;;;;;;;;;;;;;;;;;5053397;28;20006;-66
2021/09/21 04:03:47;;;;;;;;;;;;;;;;;;5063611;28;20025;-66
2021/09/21 04:06:14;;;;;;;;;;;;;;;;;;5052641;28;20500;-65
2021/09/21 04:08:41;;;;;;;;;;;;;;;;;;5068259;28;20005;-66
2021/09/21 04:11:08;;;;;;;;;;;;;;;;;;5053207;28;20016;-66
2021/09/21 04:13:35;;;;;;;;;;;;;;;;;;5052726;28;20472;-66
2021/09/21 04:16:02;;;;;;;;;;;;;;;;;;5049469;28;20021;-66
2021/09/21 04:18:29;;;;;;;;;;;;;;;;;;5067484;28;20005;-66
2021/09/21 04:20:56;;;;;;;;;;;;;;;;;;5069662;28;20005;-66
2021/09/21 04:23:23;;;;;;;;;;;;;;;;;;5052755;28;20025;-65
2021/09/21 04:25:49;;;;;;;;;;;;;;;;;;5051480;28;20022;-65
2021/09/21 04:28:16;;;;;;;;;;;;;;;;;;5064891;28;20780;-65
2021/09/21 04:30:44;;;;;;;;;;;;;;;;;;5043498;28;20033;-66
2021/09/21 04:33:11;;;;;;;;;;;;;;;;;;5054045;28;20001;-65
2021/09/21 04:35:40;;;;;;;;;;;;;;;;;;5057271;28;20018;-66
2021/09/21 04:38:07;;;;;;;;;;;;;;;;;;5054436;28;20001;-66
2021/09/21 04:40:34;;;;;;;;;;;;;;;;;;5052841;28;20002;-66
2021/09/21 04:43:01;;;;;;;;;;;;;;;;;;5051625;28;20021;-66
2021/09/21 04:45:28;;;;;;;;;;;;;;;;;;5053083;28;20022;-66
2021/09/21 04:47:55;;;;;;;;;;;;;;;;;;5049116;28;20013;-66
2021/09/21 04:50:22;;;;;;;;;;;;;;;;;;5052381;28;20009;-66
2021/09/21 04:52:48;;;;;;;;;;;;;;;;;;5052414;28;20005;-66
2021/09/21 04:55:15;;;;;;;;;;;;;;;;;;5051583;28;20040;-66
2021/09/21 04:57:42;;;;;;;;;;;;;;;;;;5052033;28;20016;-66
2021/09/21 05:00:09;;;;;;;;;;;;;;;;;;5051474;28;20010;-67
2021/09/21 05:02:37;;;;;;;;;;;;;;;;;;5059944;28;20001;-66
2021/09/21 05:05:04;;;;;;;;;;;;;;;;;;5069628;28;20025;-64
2021/09/21 05:07:30;;;;;;;;;;;;;;;;;;5055402;28;20002;-66
2021/09/21 05:09:57;;;;;;;;;;;;;;;;;;5060472;28;20009;-65
2021/09/21 05:12:24;;;;;;;;;;;;;;;;;;5056345;28;20024;-65
2021/09/21 05:14:51;;;;;;;;;;;;;;;;;;5068690;28;20010;-66
2021/09/21 05:17:19;;;;;;;;;;;;;;;;;;5051996;28;20002;-66
2021/09/21 05:19:46;;;;;;;;;;;;;;;;;;5051735;28;20010;-65
2021/09/21 05:22:13;;;;;;;;;;;;;;;;;;5055493;28;20012;-66
2021/09/21 05:24:40;;;;;;;;;;;;;;;;;;5071634;28;20516;-65
2021/09/21 05:27:07;;;;;;;;;;;;;;;;;;5040072;28;20002;-66
2021/09/21 05:29:34;;;;;;;;;;;;;;;;;;5052085;28;20010;-66
2021/09/21 05:32:01;;;;;;;;;;;;;;;;;;5052659;28;20487;-65
2021/09/21 05:34:27;;;;;;;;;;;;;;;;;;5070347;28;20009;-66
2021/09/21 05:36:54;;;;;;;;;;;;;;;;;;5062537;28;20021;-65
2021/09/21 05:39:21;;;;;;;;;;;;;;;;;;5057486;28;20487;-66
2021/09/21 05:41:48;;;;;;;;;;;;;;;;;;5056848;28;20016;-66
2021/09/21 05:44:15;;;;;;;;;;;;;;;;;;5070094;28;20021;-66
2021/09/21 05:46:42;;;;;;;;;;;;;;;;;;5057704;28;20373;-66
2021/09/21 05:49:09;;;;;;;;;;;;;;;;;;5053059;28;20002;-66
2021/09/21 05:51:36;;;;;;;;;;;;;;;;;;5057231;28;20009;-66
2021/09/21 05:54:03;;;;;;;;;;;;;;;;;;5050319;28;20641;-64
2021/09/21 05:56:30;;;;;;;;;;;;;;;;;;5050982;28;20017;-66
2021/09/21 05:58:58;;;;;;;;;;;;;;;;;;5052100;28;20010;-66
2021/09/21 06:01:25;;;;;;;;;;;;;;;;;;5052005;28;20001;-65
2021/09/21 06:03:52;;;;;;;;;;;;;;;;;;5052160;28;20017;-66
2021/09/21 06:06:19;;;;;;;;;;;;;;;;;;5051182;28;20018;-67
2021/09/21 06:08:45;;;;;;;;;;;;;;;;;;5056635;28;20801;-66
2021/09/21 06:11:12;;;;;;;;;;;;;;;;;;5050131;28;20017;-66
2021/09/21 06:13:41;;;;;;;;;;;;;;;;;;5051057;28;20009;-66
2021/09/21 06:16:08;;;;;;;;;;;;;;;;;;5051199;28;20076;-67
2021/09/21 06:18:35;;;;;;;;;;;;;;;;;;5051338;28;20472;-66
2021/09/21 06:21:02;;;;;;;;;;;;;;;;;;5051334;28;20005;-66
2021/09/21 06:23:29;;;;;;;;;;;;;;;;;;5051299;28;20026;-66
2021/09/21 06:25:56;;;;;;;;;;;;;;;;;;5053082;28;20384;-66
2021/09/21 06:28:23;;;;;;;;;;;;;;;;;;5055017;28;20482;-66
2021/09/21 06:30:50;;;;;;;;;;;;;;;;;;5054911;28;20006;-66
2021/09/21 06:33:17;;;;;;;;;;;;;;;;;;5054909;28;20013;-66
2021/09/21 06:35:44;;;;;;;;;;;;;;;;;;5054197;28;20459;-65
2021/09/21 06:38:11;;;;;;;;;;;;;;;;;;5054813;28;20016;-66
2021/09/21 06:40:37;;;;;;;;;;;;;;;;;;5054816;28;20048;-65
2021/09/21 06:43:04;;;;;;;;;;;;;;;;;;5054866;28;20507;-66
2021/09/21 06:45:31;;;;;;;;;;;;;;;;;;5054167;28;20026;-66
2021/09/21 06:47:58;;;;;;;;;;;;;;;;;;5054336;28;20009;-66
2021/09/21 06:50:25;;;;;;;;;;;;;;;;;;5054322;28;20013;-67
2021/09/21 06:52:52;;;;;;;;;;;;;;;;;;5041801;28;20012;-65
2021/09/21 06:55:19;;;;;;;;;;;;;;;;;;5044253;28;20021;-66
2021/09/21 06:57:46;;;;;;;;;;;;;;;;;;5054406;28;20277;-67
2021/09/21 07:00:13;;;;;;;;;;;;;;;;;;5054078;28;20009;-66
2021/09/21 07:02:42;;;;;;;;;;;;;;;;;;5054030;28;20108;-67
2021/09/21 07:05:09;;;;;;;;;;;;;;;;;;5054094;28;20036;-67
2021/09/21 07:07:36;;;;;;;;;;;;;;;;;;5041801;28;20338;-65
2021/09/21 07:10:03;;;;;;;;;;;;;;;;;;5053321;28;20006;-65
2021/09/21 07:12:30;;;;;;;;;;;;;;;;;;5055256;28;20020;-66
2021/09/21 07:14:57;;;;;;;;;;;;;;;;;;5053167;28;20378;-65
2021/09/21 07:17:23;;;;;;;;;;;;;;;;;;5054325;28;20020;-66
2021/09/21 07:19:50;;;;;;;;;;;;;;;;;;5053729;28;20294;-67
2021/09/21 07:22:17;;;;;;;;;;;;;;;;;;5051531;28;20001;-66
2021/09/21 07:24:44;;;;;;;;;;;;;;;;;;5054228;28;20028;-67
2021/09/21 07:27:11;;;;;;;;;;;;;;;;;;5063146;28;20006;-66
2021/09/21 07:29:38;;;;;;;;;;;;;;;;;;5053682;28;20383;-66
2021/09/21 07:32:05;;;;;;;;;;;;;;;;;;5053376;28;20010;-65
2021/09/21 07:34:32;;;;;;;;;;;;;;;;;;5053851;28;20017;-66
2021/09/21 07:36:59;;;;;;;;;;;;;;;;;;5053085;28;20044;-67
2021/09/21 07:39:26;;;;;;;;;;;;;;;;;;5053683;28;20010;-66
2021/09/21 07:41:53;;;;;;;;;;;;;;;;;;5057202;28;20587;-67
2021/09/21 07:44:20;;;;;;;;;;;;;;;;;;5053735;28;20032;-66
2021/09/21 07:46:47;;;;;;;;;;;;;;;;;;5052181;28;20116;-67
2021/09/21 07:49:14;;;;;;;;;;;;;;;;;;5049603;28;20001;-67
2021/09/21 07:51:41;;;;;;;;;;;;;;;;;;5039263;28;20005;-67
2021/09/21 07:54:08;;;;;;;;;;;;;;;;;;5054760;28;20002;-67
2021/09/21 07:56:35;;;;;;;;;;;;;;;;;;5067472;28;20033;-69
2021/09/21 07:59:03;;;;;;;;;;;;;;;;;;5054671;28;20360;-66
2021/09/21 08:01:30;;;;;;;;;;;;;;;;;;5055236;28;20010;-65
2021/09/21 08:03:57;;;;;;;;;;;;;;;;;;5049985;28;20025;-67
2021/09/21 08:06:24;;;;;;;;;;;;;;;;;;5054005;28;20017;-66
2021/09/21 08:08:51;;;;;;;;;;;;;;;;;;5062881;28;20482;-71
2021/09/21 08:11:18;;;;;;;;;;;;;;;;;;5061622;28;20005;-71
2021/09/21 08:13:45;;;;;;;;;;;;;;;;;;5052832;28;20037;-67
2021/09/21 08:16:12;;;;;;;;;;;;;;;;;;5062199;28;20531;-67
2021/09/21 08:18:38;;;;;;;;;;;;;;;;;;5060069;28;20008;-67
2021/09/21 08:21:05;;;;;;;;;;;;;;;;;;5058150;28;20005;-72
2021/09/21 08:23:32;;;;;;;;;;;;;;;;;;5072327;28;20373;-70
2021/09/21 08:25:59;;;;;;;;;;;;;;;;;;5065345;28;20025;-71
2021/09/21 08:28:26;;;;;;;;;;;;;;;;;;5056312;28;20002;-71
2021/09/21 08:30:53;;;;;;;;;;;;;;;;;;5060397;28;20008;-68
2021/09/21 08:33:20;;;;;;;;;;;;;;;;;;5055419;28;20002;-71
2021/09/21 08:35:47;;;;;;;;;;;;;;;;;;5052354;28;20021;-71
2021/09/21 08:38:14;;;;;;;;;;;;;;;;;;5069233;28;20017;-70
2021/09/21 08:40:41;;;;;;;;;;;;;;;;;;5058281;28;20028;-69
2021/09/21 08:43:08;;;;;;;;;;;;;;;;;;5058620;28;20012;-71
2021/09/21 08:45:35;;;;;;;;;;;;;;;;;;5052177;28;20034;-70
2021/09/21 08:48:02;;;;;;;;;;;;;;;;;;5051254;28;20013;-70
2021/09/21 08:50:29;;;;;;;;;;;;;;;;;;5052242;28;20005;-71
2021/09/21 08:52:56;;;;;;;;;;;;;;;;;;5052123;28;20009;-71
2021/09/21 08:55:23;;;;;;;;;;;;;;;;;;5051886;28;20397;-68
2021/09/21 08:57:50;;;;;;;;;;;;;;;;;;5052395;28;20010;-68
2021/09/21 09:00:17;;;;;;;;;;;;;;;;;;5051819;28;20010;-68
2021/09/21 09:02:44;;;;;;;;;;;;;;;;;;5050732;28;20726;-68
2021/09/21 09:05:12;;;;;;;;;;;;;;;;;;5048174;28;20032;-68
2021/09/21 09:07:38;;;;;;;;;;;;;;;;;;5050596;28;20009;-68
2021/09/21 09:10:05;;;;;;;;;;;;;;;;;;5049041;28;20006;-67
2021/09/21 09:12:32;;;;;;;;;;;;;;;;;;5053267;28;20006;-68
2021/09/21 09:14:59;;;;;;;;;;;;;;;;;;5060004;28;20005;-68
2021/09/21 09:17:26;;;;;;;;;;;;;;;;;;5052032;28;20009;-68
2021/09/21 09:19:53;;;;;;;;;;;;;;;;;;5052048;28;20006;-68
2021/09/21 09:22:20;;;;;;;;;;;;;;;;;;5046114;28;20380;-66
2021/09/21 09:24:47;;;;;;;;;;;;;;;;;;5051359;28;20021;-68
2021/09/21 09:27:14;;;;;;;;;;;;;;;;;;5052131;28;20016;-67
2021/09/21 09:29:41;;;;;;;;;;;;;;;;;;5051818;28;20012;-68
2021/09/21 09:32:08;;;;;;;;;;;;;;;;;;5053252;28;20010;-68
2021/09/21 09:34:35;;;;;;;;;;;;;;;;;;5051173;28;20002;-67
2021/09/21 09:37:04;;;;;;;;;;;;;;;;;;5049153;28;20048;-68
2021/09/21 09:39:31;;;;;;;;;;;;;;;;;;5047964;28;20008;-67
2021/09/21 09:41:58;;;;;;;;;;;;;;;;;;5051677;28;20005;-67
2021/09/21 09:44:25;;;;;;;;;;;;;;;;;;5059476;28;20392;-68
2021/09/21 09:46:52;;;;;;;;;;;;;;;;;;5107180;22;20036;-69
2021/09/21 09:49:19;;;;;;;;;;;;;;;;;;5070309;28;20001;-69
2021/09/21 09:51:46;;;;;;;;;;;;;;;;;;5066017;28;20005;-69
2021/09/21 09:54:14;;;;;;;;;;;;;;;;;;5071882;28;20006;-68
2021/09/21 09:56:41;;;;;;;;;;;;;;;;;;5060758;28;20025;-69
2021/09/21 09:59:08;;;;;;;;;;;;;;;;;;5061343;28;20451;-69
2021/09/21 10:01:35;;;;;;;;;;;;;;;;;;5068123;28;20015;-69
2021/09/21 10:04:02;;;;;;;;;;;;;;;;;;5063504;28;20523;-68
2021/09/21 10:06:29;;;;;;;;;;;;;;;;;;5076200;28;20519;-68
2021/09/21 10:08:56;;;;;;;;;;;;;;;;;;5072949;28;20002;-68
2021/09/21 10:11:23;;;;;;;;;;;;;;;;;;5067891;28;20080;-69
2021/09/21 10:13:50;;;;;;;;;;;;;;;;;;5068041;28;20002;-69
2021/09/21 10:16:17;;;;;;;;;;;;;;;;;;5063740;28;20495;-69
2021/09/21 10:18:44;;;;;;;;;;;;;;;;;;5056179;28;20005;-69
2021/09/21 10:21:11;;;;;;;;;;;;;;;;;;5055433;28;20500;-69
2021/09/21 10:23:39;;;;;;;;;;;;;;;;;;5055358;28;20423;-69
2021/09/21 10:26:06;;;;;;;;;;;;;;;;;;5074130;28;20100;-68
2021/09/21 10:28:33;;;;;;;;;;;;;;;;;;5070952;28;20002;-68
2021/09/21 10:31:00;;;;;;;;;;;;;;;;;;5068225;28;20005;-67
2021/09/21 10:33:27;;;;;;;;;;;;;;;;;;5075170;28;20020;-67
2021/09/21 10:35:54;;;;;;;;;;;;;;;;;;5070550;28;20025;-67
2021/09/21 10:38:21;;;;;;;;;;;;;;;;;;5055195;28;20020;-66
2021/09/21 10:40:48;;;;;;;;;;;;;;;;;;5055379;28;20009;-68
2021/09/21 10:43:14;;;;;;;;;;;;;;;;;;5055354;28;20012;-66
2021/09/21 10:45:41;;;;;;;;;;;;;;;;;;5059755;28;20025;-67
2021/09/21 10:48:08;;;;;;;;;;;;;;;;;;5074647;28;20471;-67
2021/09/21 10:50:35;;;;;;;;;;;;;;;;;;5058207;28;20016;-66
2021/09/21 10:53:02;;;;;;;;;;;;;;;;;;5055119;28;20009;-67
2021/09/21 10:55:29;;;;;;;;;;;;;;;;;;5054132;28;20461;-67
2021/09/21 10:57:56;;;;;;;;;;;;;;;;;;5054963;28;20010;-69
2021/09/21 11:00:23;;;;;;;;;;;;;;;;;;5058390;28;20008;-69
2021/09/21 11:02:51;;;;;;;;;;;;;;;;;;5075255;28;20071;-69
2021/09/21 11:05:18;;;;;;;;;;;;;;;;;;5074496;28;20031;-69
2021/09/21 11:07:45;;;;;;;;;;;;;;;;;;5074614;28;20468;-69
2021/09/21 11:10:12;;;;;;;;;;;;;;;;;;5074466;28;20009;-68
2021/09/21 11:12:39;;;;;;;;;;;;;;;;;;5074643;28;20017;-68
2021/09/21 11:15:06;;;;;;;;;;;;;;;;;;5069986;28;20495;-69
2021/09/21 11:17:33;;;;;;;;;;;;;;;;;;5072900;28;20017;-69
2021/09/21 11:20:00;;;;;;;;;;;;;;;;;;5063276;28;20006;-69
2021/09/21 11:22:29;;;;;;;;;;;;;;;;;;5053793;28;20514;-69
2021/09/21 11:24:56;;;;;;;;;;;;;;;;;;5053953;28;20060;-69
2021/09/21 11:27:23;;;;;;;;;;;;;;;;;;5053589;28;20025;-69
2021/09/21 11:29:49;;;;;;;;;;;;;;;;;;5057038;28;20021;-69
2021/09/21 11:32:17;;;;;;;;;;;;;;;;;;5074422;28;20361;-70
2021/09/21 11:34:43;;;;;;;;;;;;;;;;;;5072603;28;20051;-69
2021/09/21 11:37:11;;;;;;;;;;;;;;;;;;5073648;28;20496;-70
2021/09/21 11:39:38;;;;;;;;;;;;;;;;;;5073966;28;20032;-70
2021/09/21 11:42:05;;;;;;;;;;;;;;;;;;5072407;28;20015;-70
2021/09/21 11:44:32;;;;;;;;;;;;;;;;;;5072134;28;20005;-67
2021/09/21 11:46:59;;;;;;;;;;;;;;;;;;5073638;28;20025;-67
2021/09/21 11:49:26;;;;;;;;;;;;;;;;;;5073473;28;20013;-68
2021/09/21 11:51:53;;;;;;;;;;;;;;;;;;5072461;28;20005;-65
2021/09/21 11:54:20;;;;;;;;;;;;;;;;;;5073213;28;20028;-69
2021/09/21 11:56:47;;;;;;;;;;;;;;;;;;5073571;28;20033;-68
2021/09/21 11:59:14;;;;;;;;;;;;;;;;;;5073385;28;20020;-69
2021/09/21 12:01:41;;;;;;;;;;;;;;;;;;5056053;28;20699;-67
2021/09/21 12:04:07;;;;;;;;;;;;;;;;;;5053759;28;20010;-67
2021/09/21 12:06:34;;;;;;;;;;;;;;;;;;5063187;28;20021;-68
2021/09/21 12:09:01;;;;;;;;;;;;;;;;;;5073144;28;20006;-68
2021/09/21 12:11:28;;;;;;;;;;;;;;;;;;5068070;28;20005;-68
2021/09/21 12:13:55;;;;;;;;;;;;;;;;;;5063362;28;20069;-68
2021/09/21 12:16:23;;;;;;;;;;;;;;;;;;5073402;28;20392;-68
2021/09/21 12:18:52;;;;;;;;;;;;;;;;;;5072899;28;20243;-67
2021/09/21 12:21:19;;;;;;;;;;;;;;;;;;5068530;28;20005;-68
2021/09/21 12:23:46;;;;;;;;;;;;;;;;;;5065958;28;20032;-69
2021/09/21 12:26:13;;;;;;;;;;;;;;;;;;5055744;28;20074;-68
2021/09/21 12:28:40;;;;;;;;;;;;;;;;;;5073337;28;20009;-68
2021/09/21 12:31:07;;;;;;;;;;;;;;;;;;5072941;28;20013;-68
2021/09/21 12:33:34;;;;;;;;;;;;;;;;;;5067456;28;20001;-68
2021/09/21 12:36:01;;;;;;;;;;;;;;;;;;5069895;28;20028;-68
2021/09/21 12:38:27;;;;;;;;;;;;;;;;;;5070961;28;20013;-68
2021/09/21 12:40:55;;;;;;;;;;;;;;;;;;5070481;28;20010;-70
2021/09/21 12:43:22;;;;;;;;;;;;;;;;;;5069603;28;20012;-68
2021/09/21 12:45:49;;;;;;;;;;;;;;;;;;5060283;28;20108;-68
2021/09/21 12:48:16;;;;;;;;;;;;;;;;;;5063822;28;20373;-68
2021/09/21 12:50:43;;;;;;;;;;;;;;;;;;5052640;28;20016;-68
2021/09/21 12:53:10;;;;;;;;;;;;;;;;;;5063718;28;20012;-68
2021/09/21 12:55:37;;;;;;;;;;;;;;;;;;5067320;28;20496;-68
2021/09/21 12:58:04;;;;;;;;;;;;;;;;;;5072471;28;20006;-70
2021/09/21 13:00:31;;;;;;;;;;;;;;;;;;5072333;28;20013;-68
2021/09/21 13:02:58;;;;;;;;;;;;;;;;;;5067986;28;20008;-69
2021/09/21 13:05:25;;;;;;;;;;;;;;;;;;5056725;28;20028;-70
2021/09/21 13:07:52;;;;;;;;;;;;;;;;;;5064652;28;20005;-70
2021/09/21 13:10:19;;;;;;;;;;;;;;;;;;5072079;28;20005;-70
2021/09/21 13:12:46;;;;;;;;;;;;;;;;;;5063407;28;20013;-68
2021/09/21 13:15:12;;;;;;;;;;;;;;;;;;5065351;28;20002;-70
2021/09/21 13:17:39;;;;;;;;;;;;;;;;;;5064211;28;20009;-68
2021/09/21 13:20:06;;;;;;;;;;;;;;;;;;5068446;28;20013;-67
2021/09/21 13:22:33;;;;;;;;;;;;;;;;;;5072707;28;20061;-71
2021/09/21 13:25:00;;;;;;;;;;;;;;;;;;5062749;28;20028;-72
2021/09/21 13:27:27;;;;;;;;;;;;;;;;;;5071962;28;20017;-69
2021/09/21 13:29:54;;;;;;;;;;;;;;;;;;5071739;28;20005;-69
2021/09/21 13:32:21;;;;;;;;;;;;;;;;;;5071800;28;20008;-69
2021/09/21 13:34:48;;;;;;;;;;;;;;;;;;5074590;28;20545;-69
2021/09/21 13:37:15;;;;;;;;;;;;;;;;;;5075650;28;20116;-69
2021/09/21 13:39:42;;;;;;;;;;;;;;;;;;5077102;28;20009;-69
2021/09/21 13:42:09;;;;;;;;;;;;;;;;;;5075906;28;20005;-69
2021/09/21 13:44:36;;;;;;;;;;;;;;;;;;5074563;28;20001;-69
2021/09/21 13:47:03;;;;;;;;;;;;;;;;;;5075508;28;20052;-69
2021/09/21 13:49:30;;;;;;;;;;;;;;;;;;5062746;28;20012;-69
2021/09/21 13:51:57;;;;;;;;;;;;;;;;;;5076295;28;20055;-69
2021/09/21 13:54:24;;;;;;;;;;;;;;;;;;5075356;28;20005;-69
2021/09/21 13:56:51;;;;;;;;;;;;;;;;;;5076337;28;20202;-68
2021/09/21 13:59:18;;;;;;;;;;;;;;;;;;5063470;28;20009;-68
2021/09/21 14:01:45;;;;;;;;;;;;;;;;;;5059225;28;20006;-69
2021/09/21 14:04:12;;;;;;;;;;;;;;;;;;5055929;28;20010;-69
2021/09/21 14:06:39;;;;;;;;;;;;;;;;;;5055462;28;20401;-69
2021/09/21 14:09:06;;;;;;;;;;;;;;;;;;5066394;28;20005;-69
2021/09/21 14:11:33;;;;;;;;;;;;;;;;;;5065329;28;20002;-68
2021/09/21 14:13:59;;;;;;;;;;;;;;;;;;5074697;28;20005;-71
2021/09/21 14:16:26;;;;;;;;;;;;;;;;;;5072288;28;20506;-69
2021/09/21 14:18:53;;;;;;;;;;;;;;;;;;5063977;28;20005;-69
2021/09/21 14:21:23;;;;;;;;;;;;;;;;;;5057084;28;20009;-68
2021/09/21 14:23:50;;;;;;;;;;;;;;;;;;5073594;28;20013;-68
2021/09/21 14:26:16;;;;;;;;;;;;;;;;;;5058578;28;20030;-67
2021/09/21 14:28:43;;;;;;;;;;;;;;;;;;5056803;28;20009;-68
2021/09/21 14:31:10;;;;;;;;;;;;;;;;;;5071079;28;20392;-68
2021/09/21 14:33:37;;;;;;;;;;;;;;;;;;5071742;28;20007;-69
2021/09/21 14:36:04;;;;;;;;;;;;;;;;;;5075032;28;20024;-68
2021/09/21 14:38:31;;;;;;;;;;;;;;;;;;5062371;28;20002;-69
2021/09/21 14:40:58;;;;;;;;;;;;;;;;;;5060568;28;20460;-68
2021/09/21 14:43:25;;;;;;;;;;;;;;;;;;5062605;28;20005;-68
2021/09/21 14:45:52;;;;;;;;;;;;;;;;;;5068927;28;20032;-68
2021/09/21 14:48:19;;;;;;;;;;;;;;;;;;5072978;28;20007;-68
2021/09/21 14:50:46;;;;;;;;;;;;;;;;;;5072814;28;20010;-69
2021/09/21 14:53:13;;;;;;;;;;;;;;;;;;5074756;28;20380;-69
2021/09/21 14:55:40;;;;;;;;;;;;;;;;;;5060493;28;20033;-69
2021/09/21 14:58:07;;;;;;;;;;;;;;;;;;5054926;28;20018;-71
2021/09/21 15:00:33;;;;;;;;;;;;;;;;;;5060523;28;20364;-69
2021/09/21 15:03:00;;;;;;;;;;;;;;;;;;5069439;28;20001;-70
2021/09/21 15:05:27;;;;;;;;;;;;;;;;;;5071628;28;20136;-71
2021/09/21 15:07:54;;;;;;;;;;;;;;;;;;5072760;28;20002;-69
2021/09/21 15:10:21;;;;;;;;;;;;;;;;;;5074971;28;20375;-71
2021/09/21 15:12:48;;;;;;;;;;;;;;;;;;5066060;28;20011;-69
2021/09/21 15:15:15;;;;;;;;;;;;;;;;;;5069456;28;20002;-69
2021/09/21 15:17:42;;;;;;;;;;;;;;;;;;5054786;28;20468;-69
2021/09/21 15:20:09;;;;;;;;;;;;;;;;;;5072631;28;20009;-68
2021/09/21 15:22:36;;;;;;;;;;;;;;;;;;5073516;28;20005;-67
2021/09/21 15:25:03;;;;;;;;;;;;;;;;;;5055407;28;20396;-70
2021/09/21 15:27:30;;;;;;;;;;;;;;;;;;5073957;28;20025;-71
2021/09/21 15:29:57;;;;;;;;;;;;;;;;;;5074048;28;20484;-69
2021/09/21 15:32:24;;;;;;;;;;;;;;;;;;5072896;28;20059;-71
2021/09/21 15:34:51;;;;;;;;;;;;;;;;;;5073693;28;20019;-71
2021/09/21 15:37:17;;;;;;;;;;;;;;;;;;5070308;28;20025;-70
2021/09/21 15:39:44;;;;;;;;;;;;;;;;;;5063796;28;20372;-70
2021/09/21 15:42:11;;;;;;;;;;;;;;;;;;5073113;28;20007;-70
2021/09/21 15:44:38;;;;;;;;;;;;;;;;;;5072368;28;20012;-70
2021/09/21 15:47:08;;;;;;;;;;;;;;;;;;5073476;28;20029;-69
2021/09/21 15:49:35;;;;;;;;;;;;;;;;;;5073187;28;20035;-69
2021/09/21 15:52:02;;;;;;;;;;;;;;;;;;5072770;28;20012;-70
2021/09/21 15:54:33;;;;;;;;;;;;;;;;;;5062106;28;20008;-70
2021/09/21 15:57:00;;;;;;;;;;;;;;;;;;5053661;28;20132;-70
2021/09/21 15:59:27;;;;;;;;;;;;;;;;;;5059059;28;20016;-70
2021/09/21 16:01:54;;;;;;;;;;;;;;;;;;5073193;28;20028;-69
2021/09/21 16:04:21;;;;;;;;;;;;;;;;;;5071524;28;20001;-68
2021/09/21 16:06:48;;;;;;;;;;;;;;;;;;5073239;28;20033;-67
2021/09/21 16:09:14;;;;;;;;;;;;;;;;;;5071148;28;20001;-68
2021/09/21 16:11:41;;;;;;;;;;;;;;;;;;5072123;28;20009;-68
2021/09/21 16:14:09;;;;;;;;;;;;;;;;;;5065132;28;20009;-69
2021/09/21 16:16:36;;;;;;;;;;;;;;;;;;5062033;28;20095;-68
2021/09/21 16:19:03;;;;;;;;;;;;;;;;;;5064385;28;20002;-68
2021/09/21 16:21:29;;;;;;;;;;;;;;;;;;5073205;28;20013;-68
2021/09/21 16:23:56;;;;;;;;;;;;;;;;;;5071803;28;20005;-68
2021/09/21 16:26:23;;;;;;;;;;;;;;;;;;5071644;28;20025;-69
2021/09/21 16:28:50;;;;;;;;;;;;;;;;;;5071918;28;20006;-69
2021/09/21 16:31:20;;;;;;;;;;;;;;;;;;5073148;28;20017;-69
2021/09/21 16:33:46;;;;;;;;;;;;;;;;;;5071915;28;20048;-69
2021/09/21 16:36:13;;;;;;;;;;;;;;;;;;5072923;28;20033;-68
2021/09/21 16:38:40;;;;;;;;;;;;;;;;;;5070654;28;20005;-68
2021/09/21 16:41:09;;;;;;;;;;;;;;;;;;5068156;28;20013;-68
2021/09/21 16:43:36;;;;;;;;;;;;;;;;;;5067439;28;20483;-69
2021/09/21 16:46:03;;;;;;;;;;;;;;;;;;5071987;28;20025;-69
2021/09/21 16:48:30;;;;;;;;;;;;;;;;;;5067091;28;20005;-68
2021/09/21 16:50:56;;;;;;;;;;;;;;;;;;5052569;28;20631;-69